createdAt,value
2022-11-01T00:01:54.829Z,29.20
2022-11-01T00:04:22.820Z,31.08
2022-11-01T00:06:51.444Z,30.00
2022-11-01T00:09:19.637Z,24.40
2022-11-01T00:11:49.304Z,24.55
2022-11-01T00:14:19.549Z,33.17
2022-11-01T00:16:47.440Z,37.60
2022-11-01T00:19:15.598Z,28.15
2022-11-01T00:21:43.784Z,26.02
2022-11-01T00:24:11.848Z,31.23
2022-11-01T00:26:39.918Z,27.15
2022-11-01T00:29:09.199Z,21.95
2022-11-01T00:31:38.177Z,33.28
2022-11-01T00:34:06.861Z,31.88
2022-11-01T00:36:34.878Z,32.72
2022-11-01T00:39:03.359Z,30.92
2022-11-01T00:41:31.363Z,28.25
2022-11-01T00:44:02.198Z,25.13
2022-11-01T00:46:31.737Z,30.08
2022-11-01T00:48:59.861Z,32.40
2022-11-01T00:51:28.827Z,20.35
2022-11-01T00:53:56.910Z,25.35
2022-11-01T00:56:24.780Z,26.30
2022-11-01T00:58:52.839Z,26.42
2022-11-01T01:01:20.890Z,31.15
2022-11-01T01:03:50.339Z,30.45
2022-11-01T01:06:18.243Z,30.63
2022-11-01T01:08:46.367Z,23.02
2022-11-01T01:11:16.280Z,37.45
2022-11-01T01:13:46.786Z,22.17
2022-11-01T01:16:14.866Z,28.35
2022-11-01T01:18:42.759Z,29.85
2022-11-01T01:21:13.983Z,22.50
2022-11-01T01:23:43.398Z,25.40
2022-11-01T01:26:12.780Z,34.45
2022-11-01T01:28:43.669Z,22.95
2022-11-01T01:31:14.103Z,19.90
2022-11-01T01:33:42.726Z,25.15
2022-11-01T01:36:12.476Z,22.17
2022-11-01T01:38:40.403Z,24.85
2022-11-01T01:41:25.819Z,27.35
2022-11-01T01:43:54.338Z,22.38
2022-11-01T01:46:22.729Z,24.48
2022-11-01T01:48:55.937Z,27.85
2022-11-01T01:51:28.423Z,28.25
2022-11-01T01:53:58.217Z,26.38
2022-11-01T01:56:32.188Z,21.38
2022-11-01T01:59:04.246Z,20.65
2022-11-01T02:01:33.532Z,23.38
2022-11-01T02:04:02.126Z,23.58
2022-11-01T02:06:33.736Z,25.77
2022-11-01T02:09:04.463Z,26.65
2022-11-01T02:11:32.337Z,19.25
2022-11-01T02:14:00.536Z,17.45
2022-11-01T02:16:51.643Z,26.80
2022-11-01T02:19:43.151Z,22.85
2022-11-01T02:22:18.277Z,19.13
2022-11-01T02:25:03.385Z,23.83
2022-11-01T02:27:42.596Z,19.33
2022-11-01T02:30:15.770Z,20.42
2022-11-01T02:33:05.678Z,21.35
2022-11-01T02:35:48.899Z,16.40
2022-11-01T02:38:24.998Z,29.45
2022-11-01T02:41:01.001Z,20.95
2022-11-01T02:43:43.525Z,23.75
2022-11-01T02:46:29.681Z,22.70
2022-11-01T02:48:59.224Z,24.85
2022-11-01T02:51:29.144Z,20.88
2022-11-01T02:53:57.064Z,20.30
2022-11-01T02:56:24.992Z,13.75
2022-11-01T02:58:53.810Z,21.70
2022-11-01T03:01:26.115Z,21.40
2022-11-01T03:03:57.653Z,17.80
2022-11-01T03:06:35.051Z,16.33
2022-11-01T03:09:07.091Z,25.38
2022-11-01T03:11:43.598Z,17.33
2022-11-01T03:14:19.784Z,17.00
2022-11-01T03:16:55.499Z,14.98
2022-11-01T03:19:33.836Z,20.70
2022-11-01T03:22:08.146Z,25.65
2022-11-01T03:24:45.103Z,16.25
2022-11-01T03:27:18.046Z,20.70
2022-11-01T03:29:49.508Z,26.35
2022-11-01T03:32:20.863Z,19.23
2022-11-01T03:34:49.073Z,17.63
2022-11-01T03:37:20.300Z,15.57
2022-11-01T03:39:52.967Z,20.67
2022-11-01T03:42:24.870Z,21.30
2022-11-01T03:44:59.113Z,14.70
2022-11-01T03:47:28.190Z,14.52
2022-11-01T03:50:16.233Z,15.68
2022-11-01T03:52:46.203Z,17.98
2022-11-01T03:55:20.773Z,18.55
2022-11-01T03:57:50.457Z,16.48
2022-11-01T04:00:21.010Z,17.17
2022-11-01T04:02:49.650Z,21.08
2022-11-01T04:05:18.086Z,18.00
2022-11-01T04:07:47.911Z,19.40
2022-11-01T04:10:16.741Z,26.63
2022-11-01T04:12:46.546Z,14.70
2022-11-01T04:15:32.660Z,14.32
2022-11-01T04:18:22.740Z,19.65
2022-11-01T04:20:51.270Z,17.75
2022-11-01T04:23:21.079Z,13.95
2022-11-01T04:25:48.983Z,23.80
2022-11-01T04:28:17.383Z,19.23
2022-11-01T04:30:45.377Z,16.73
2022-11-01T04:33:13.223Z,16.35
2022-11-01T04:35:42.479Z,13.45
2022-11-01T04:38:11.594Z,12.52
2022-11-01T04:40:41.039Z,16.00
2022-11-01T04:43:09.209Z,16.38
2022-11-01T04:45:37.148Z,22.45
2022-11-01T04:48:07.608Z,14.88
2022-11-01T04:50:36.695Z,10.52
2022-11-01T04:53:05.086Z,18.98
2022-11-01T04:55:33.253Z,12.15
2022-11-01T04:58:03.136Z,13.32
2022-11-01T05:00:32.091Z,18.33
2022-11-01T05:03:05.199Z,18.92
2022-11-01T05:05:33.798Z,10.25
2022-11-01T05:08:02.925Z,19.60
2022-11-01T05:10:31.887Z,12.73
2022-11-01T05:13:00.643Z,18.35
2022-11-01T05:15:30.409Z,14.13
2022-11-01T05:17:58.529Z,15.20
2022-11-01T05:20:26.561Z,11.48
2022-11-01T05:22:59.266Z,14.77
2022-11-01T05:25:27.578Z,13.00
2022-11-01T05:28:01.152Z,11.80
2022-11-01T05:30:30.782Z,13.63
2022-11-01T05:33:00.348Z,19.67
2022-11-01T05:35:30.020Z,15.73
2022-11-01T05:37:58.308Z,14.20
2022-11-01T05:40:26.643Z,9.77
2022-11-01T05:42:54.631Z,11.88
2022-11-01T05:45:22.799Z,9.07
2022-11-01T05:47:52.147Z,14.52
2022-11-01T05:50:20.021Z,10.75
2022-11-01T05:52:48.465Z,10.80
2022-11-01T05:55:16.584Z,7.43
2022-11-01T05:57:44.506Z,13.45
2022-11-01T06:00:13.635Z,11.85
2022-11-01T06:02:41.778Z,10.45
2022-11-01T06:05:11.441Z,8.38
2022-11-01T06:07:39.289Z,13.10
2022-11-01T06:10:08.371Z,13.13
2022-11-01T06:12:36.378Z,6.65
2022-11-01T06:15:04.896Z,6.15
2022-11-01T06:17:32.794Z,4.47
2022-11-01T06:20:00.714Z,4.97
2022-11-01T06:22:29.900Z,7.05
2022-11-01T06:24:57.791Z,6.78
2022-11-01T06:27:25.649Z,4.93
2022-11-01T06:29:53.512Z,3.08
2022-11-01T06:32:21.392Z,9.25
2022-11-01T06:34:49.353Z,6.00
2022-11-01T06:37:17.392Z,4.43
2022-11-01T06:39:46.963Z,5.90
2022-11-01T06:42:14.930Z,6.50
2022-11-01T06:44:42.911Z,14.20
2022-11-01T06:47:12.833Z,5.75
2022-11-01T06:49:40.808Z,6.00
2022-11-01T06:52:09.713Z,6.38
2022-11-01T06:54:37.676Z,5.40
2022-11-01T06:57:07.035Z,7.32
2022-11-01T06:59:35.014Z,6.70
2022-11-01T07:02:03.037Z,7.97
2022-11-01T07:04:31.909Z,12.05
2022-11-01T07:06:59.897Z,8.38
2022-11-01T07:09:28.174Z,9.80
2022-11-01T07:11:56.128Z,6.68
2022-11-01T07:14:25.395Z,6.85
2022-11-01T07:16:53.235Z,8.07
2022-11-01T07:19:22.485Z,11.35
2022-11-01T07:21:50.752Z,12.43
2022-11-01T07:24:18.866Z,14.82
2022-11-01T07:26:46.987Z,10.70
2022-11-01T07:29:14.988Z,16.27
2022-11-01T07:31:44.329Z,12.68
2022-11-01T07:34:12.323Z,12.00
2022-11-01T07:36:40.804Z,15.57
2022-11-01T07:39:08.811Z,10.88
2022-11-01T07:41:36.673Z,20.10
2022-11-01T07:44:04.895Z,12.70
2022-11-01T07:46:32.835Z,19.33
2022-11-01T07:49:02.133Z,29.42
2022-11-01T07:51:30.487Z,14.32
2022-11-01T07:53:58.299Z,19.13
2022-11-01T07:56:26.304Z,15.95
2022-11-01T07:58:54.153Z,13.25
2022-11-01T08:01:22.214Z,11.05
2022-11-01T08:03:50.390Z,12.68
2022-11-01T08:06:19.699Z,12.75
2022-11-01T08:08:47.539Z,14.68
2022-11-01T08:11:15.494Z,9.77
2022-11-01T08:13:43.394Z,25.23
2022-11-01T08:16:11.325Z,18.75
2022-11-01T08:18:39.295Z,11.13
2022-11-01T08:21:07.303Z,13.90
2022-11-01T08:23:36.818Z,18.92
2022-11-01T08:26:06.304Z,18.00
2022-11-01T08:28:34.192Z,13.23
2022-11-01T08:31:07.070Z,11.88
2022-11-01T08:33:34.990Z,13.27
2022-11-01T08:36:03.134Z,15.50
2022-11-01T08:38:30.993Z,20.30
2022-11-01T08:41:01.019Z,20.33
2022-11-01T08:43:28.979Z,14.77
2022-11-01T08:45:59.444Z,15.57
2022-11-01T08:48:27.327Z,29.65
2022-11-01T08:50:55.223Z,18.80
2022-11-01T08:53:24.897Z,12.20
2022-11-01T08:55:55.744Z,25.02
2022-11-01T08:58:25.105Z,26.77
2022-11-01T09:00:53.087Z,21.95
2022-11-01T09:03:21.013Z,21.50
2022-11-01T09:05:49.096Z,18.38
2022-11-01T09:08:17.097Z,32.95
2022-11-01T09:10:45.067Z,24.08
2022-11-01T09:13:12.999Z,20.40
2022-11-01T09:15:42.348Z,28.85
2022-11-01T09:18:10.535Z,30.77
2022-11-01T09:20:38.774Z,17.17
2022-11-01T09:23:06.846Z,28.73
2022-11-01T09:25:34.807Z,21.00
2022-11-01T09:28:02.729Z,21.55
2022-11-01T09:30:31.013Z,31.25
2022-11-01T09:33:05.708Z,29.60
2022-11-01T09:35:33.897Z,33.72
2022-11-01T09:38:03.871Z,31.55
2022-11-01T09:40:40.929Z,26.67
2022-11-01T09:43:12.384Z,16.92
2022-11-01T09:45:40.431Z,24.75
2022-11-01T09:48:13.150Z,26.38
2022-11-01T09:50:43.860Z,24.15
2022-11-01T09:53:18.691Z,21.73
2022-11-01T09:55:52.218Z,28.67
2022-11-01T10:01:11.583Z,23.05
2022-11-01T10:03:52.969Z,22.35
2022-11-01T10:06:25.012Z,21.63
2022-11-01T10:09:05.855Z,24.60
2022-11-01T10:11:46.146Z,21.35
2022-11-01T10:14:29.117Z,17.77
2022-11-01T10:17:07.770Z,24.13
2022-11-01T10:19:38.399Z,16.00
2022-11-01T10:22:13.162Z,33.97
2022-11-01T10:24:45.311Z,21.40
2022-11-01T10:27:19.752Z,19.70
2022-11-01T10:29:55.908Z,23.48
2022-11-01T10:32:30.857Z,25.10
2022-11-01T10:35:05.263Z,24.55
2022-11-01T10:37:43.736Z,26.58
2022-11-01T10:40:24.712Z,21.55
2022-11-01T10:42:52.671Z,21.07
2022-11-01T10:45:23.162Z,19.95
2022-11-01T10:47:55.955Z,24.42
2022-11-01T10:50:27.419Z,25.93
2022-11-01T10:53:00.861Z,23.20
2022-11-01T10:55:35.574Z,20.30
2022-11-01T10:58:07.457Z,33.30
2022-11-01T11:00:38.253Z,27.52
2022-11-01T11:03:22.322Z,25.33
2022-11-01T11:05:53.162Z,23.27
2022-11-01T11:08:24.752Z,31.20
2022-11-01T11:10:53.028Z,19.08
2022-11-01T11:13:23.711Z,21.48
2022-11-01T11:15:53.679Z,23.15
2022-11-01T11:18:26.213Z,24.77
2022-11-01T11:21:00.070Z,25.05
2022-11-01T11:23:29.612Z,23.60
2022-11-01T11:26:02.908Z,22.35
2022-11-01T11:28:33.594Z,24.08
2022-11-01T11:31:13.767Z,21.10
2022-11-01T11:33:50.179Z,27.70
2022-11-01T11:36:27.472Z,22.92
2022-11-01T11:38:56.349Z,17.73
2022-11-01T11:41:30.205Z,25.00
2022-11-01T11:43:58.342Z,24.65
2022-11-01T11:46:26.211Z,21.95
2022-11-01T11:48:56.950Z,17.33
2022-11-01T11:51:28.850Z,22.10
2022-11-01T11:54:26.360Z,15.35
2022-11-01T11:57:11.139Z,18.98
2022-11-01T11:59:40.785Z,22.58
2022-11-01T12:02:19.877Z,23.83
2022-11-01T12:04:52.751Z,22.60
2022-11-01T12:07:30.592Z,22.30
2022-11-01T12:10:02.146Z,24.63
2022-11-01T12:12:32.476Z,20.85
2022-11-01T12:15:02.041Z,24.10
2022-11-01T12:17:33.733Z,25.48
2022-11-01T12:20:16.818Z,22.48
2022-11-01T12:22:50.212Z,29.30
2022-11-01T12:25:22.683Z,20.73
2022-11-01T12:27:58.747Z,16.65
2022-11-01T12:30:29.484Z,21.55
2022-11-01T12:32:59.730Z,19.15
2022-11-01T12:35:31.911Z,23.23
2022-11-01T12:38:13.660Z,26.17
2022-11-01T12:40:44.678Z,20.02
2022-11-01T12:43:17.499Z,19.45
2022-11-01T12:45:51.293Z,17.23
2022-11-01T12:48:25.878Z,24.17
2022-11-01T12:50:59.390Z,24.50
2022-11-01T12:53:34.343Z,23.85
2022-11-01T12:56:02.336Z,16.48
2022-11-01T12:58:33.796Z,19.38
2022-11-01T13:01:27.030Z,23.77
2022-11-01T13:04:08.882Z,15.02
2022-11-01T13:06:56.155Z,13.93
2022-11-01T13:09:32.095Z,21.38
2022-11-01T13:12:05.990Z,14.10
2022-11-01T13:14:45.757Z,17.85
2022-11-01T13:17:22.076Z,20.38
2022-11-01T13:20:00.424Z,19.38
2022-11-01T13:22:36.415Z,20.20
2022-11-01T13:25:14.063Z,19.23
2022-11-01T13:27:47.958Z,14.82
2022-11-01T13:30:19.622Z,17.15
2022-11-01T13:32:54.057Z,18.98
2022-11-01T13:35:45.808Z,14.77
2022-11-01T13:38:25.781Z,21.00
2022-11-01T13:41:06.104Z,18.45
2022-11-01T13:43:39.147Z,19.48
2022-11-01T13:46:43.741Z,16.02
2022-11-01T13:49:54.293Z,14.18
2022-11-01T13:52:28.789Z,13.13
2022-11-01T13:55:02.567Z,15.75
2022-11-01T13:57:32.777Z,11.27
2022-11-01T14:00:02.151Z,11.00
2022-11-01T14:02:58.011Z,15.27
2022-11-01T14:05:38.434Z,16.40
2022-11-01T14:08:28.858Z,12.65
2022-11-01T14:10:57.352Z,9.52
2022-11-01T14:13:35.966Z,18.25
2022-11-01T14:16:20.550Z,17.95
2022-11-01T14:19:20.454Z,9.40
2022-11-01T14:21:53.415Z,11.85
2022-11-01T14:24:32.163Z,9.00
2022-11-01T14:27:13.783Z,14.73
2022-11-01T14:29:43.148Z,17.98
2022-11-01T14:32:12.375Z,14.85
2022-11-01T14:34:42.698Z,14.55
2022-11-01T14:37:20.277Z,13.77
2022-11-01T14:39:57.228Z,12.02
2022-11-01T14:42:31.287Z,10.57
2022-11-01T14:45:03.691Z,9.48
2022-11-01T14:47:39.689Z,11.98
2022-11-01T14:50:17.104Z,15.32
2022-11-01T14:52:50.238Z,17.38
2022-11-01T14:55:23.357Z,10.07
2022-11-01T14:57:51.859Z,13.73
2022-11-01T15:00:28.497Z,14.70
2022-11-01T15:05:28.562Z,19.15
2022-11-01T15:07:59.229Z,8.85
2022-11-01T15:10:27.758Z,10.50
2022-11-01T15:12:59.276Z,11.60
2022-11-01T15:15:32.409Z,9.38
2022-11-01T15:18:04.827Z,11.40
2022-11-01T15:20:37.749Z,11.70
2022-11-01T15:23:11.042Z,10.77
2022-11-01T15:25:40.716Z,10.20
2022-11-01T15:28:08.850Z,10.25
2022-11-01T15:30:38.324Z,11.27
2022-11-01T15:33:17.658Z,12.25
2022-11-01T15:35:55.276Z,19.75
2022-11-01T15:38:24.124Z,10.75
2022-11-01T15:40:53.127Z,14.57
2022-11-01T15:43:22.907Z,12.32
2022-11-01T15:45:56.138Z,20.63
2022-11-01T15:48:28.307Z,17.20
2022-11-01T15:51:00.696Z,8.55
2022-11-01T15:53:33.459Z,12.70
2022-11-01T15:56:06.417Z,12.82
2022-11-01T15:58:39.139Z,16.17
2022-11-01T16:01:15.781Z,8.88
2022-11-01T16:03:48.523Z,11.57
2022-11-01T16:06:21.731Z,12.57
2022-11-01T16:08:55.747Z,8.80
2022-11-01T16:11:26.373Z,14.20
2022-11-01T16:14:00.531Z,17.73
2022-11-01T16:16:29.896Z,14.40
2022-11-01T16:18:57.767Z,13.73
2022-11-01T16:21:29.997Z,14.25
2022-11-01T16:24:05.308Z,10.32
2022-11-01T16:26:53.118Z,9.55
2022-11-01T16:29:38.852Z,12.57
2022-11-01T16:32:10.316Z,16.15
2022-11-01T16:34:38.612Z,16.15
2022-11-01T16:37:19.477Z,9.50
2022-11-01T16:39:48.143Z,12.65
2022-11-01T16:42:17.282Z,12.63
2022-11-01T16:44:46.115Z,13.95
2022-11-01T16:47:17.340Z,9.48
2022-11-01T16:49:50.432Z,12.25
2022-11-01T16:52:18.539Z,10.35
2022-11-01T16:54:49.493Z,11.90
2022-11-01T16:57:23.346Z,13.90
2022-11-01T16:59:52.327Z,11.77
2022-11-01T17:02:24.473Z,7.10
2022-11-01T17:04:56.411Z,19.33
2022-11-01T17:07:24.356Z,12.50
2022-11-01T17:09:52.264Z,15.30
2022-11-01T17:12:21.760Z,17.52
2022-11-01T17:14:50.973Z,10.80
2022-11-01T17:17:24.588Z,12.18
2022-11-01T17:19:59.716Z,15.15
2022-11-01T17:22:36.929Z,16.65
2022-11-01T17:27:59.881Z,12.38
2022-11-01T17:30:28.402Z,13.00
2022-11-01T17:32:56.709Z,16.42
2022-11-01T17:35:26.876Z,17.98
2022-11-01T17:37:55.887Z,15.25
2022-11-01T17:40:25.831Z,15.35
2022-11-01T17:42:54.449Z,20.13
2022-11-01T17:45:23.503Z,7.75
2022-11-01T17:47:56.107Z,15.43
2022-11-01T17:50:24.488Z,7.25
2022-11-01T17:52:54.449Z,13.18
2022-11-01T17:55:22.518Z,10.70
2022-11-01T17:57:50.632Z,13.95
2022-11-01T18:00:20.181Z,14.10
2022-11-01T18:02:48.984Z,11.65
2022-11-01T18:05:17.064Z,8.85
2022-11-01T18:07:48.650Z,10.15
2022-11-01T18:10:19.884Z,12.43
2022-11-01T18:13:15.898Z,13.65
2022-11-01T18:15:53.287Z,10.00
2022-11-01T18:18:30.296Z,21.02
2022-11-01T18:21:16.975Z,10.13
2022-11-01T18:23:46.972Z,9.98
2022-11-01T18:26:21.092Z,16.80
2022-11-01T18:28:48.992Z,10.60
2022-11-01T18:31:23.603Z,11.60
2022-11-01T18:33:59.538Z,16.55
2022-11-01T18:36:32.154Z,9.50
2022-11-01T18:39:07.233Z,14.05
2022-11-01T18:41:36.724Z,8.63
2022-11-01T18:44:11.936Z,8.32
2022-11-01T18:46:48.880Z,22.95
2022-11-01T18:49:16.816Z,10.40
2022-11-01T18:51:46.477Z,13.82
2022-11-01T18:54:29.208Z,14.13
2022-11-01T18:57:00.516Z,13.05
2022-11-01T18:59:34.679Z,9.43
2022-11-01T19:02:12.256Z,13.52
2022-11-01T19:04:44.485Z,17.63
2022-11-01T19:07:14.547Z,9.95
2022-11-01T19:09:44.665Z,6.97
2022-11-01T19:12:16.663Z,10.82
2022-11-01T19:14:47.614Z,15.20
2022-11-01T19:17:21.076Z,10.73
2022-11-01T19:19:50.533Z,15.75
2022-11-01T19:22:32.459Z,7.47
2022-11-01T19:25:01.478Z,7.28
2022-11-01T19:27:31.424Z,12.27
2022-11-01T19:30:00.465Z,12.77
2022-11-01T19:32:28.740Z,15.57
2022-11-01T19:34:57.031Z,11.00
2022-11-01T19:37:31.597Z,14.10
2022-11-01T19:40:02.890Z,17.42
2022-11-01T19:42:33.171Z,7.93
2022-11-01T19:45:11.677Z,13.00
2022-11-01T19:47:41.439Z,17.17
2022-11-01T19:50:21.351Z,17.35
2022-11-01T19:52:51.959Z,10.18
2022-11-01T19:55:37.734Z,14.65
2022-11-01T19:58:25.951Z,9.68
2022-11-01T20:01:13.596Z,11.98
2022-11-01T20:03:44.231Z,13.23
2022-11-01T20:06:17.496Z,14.18
2022-11-01T20:08:46.246Z,10.27
2022-11-01T20:11:14.212Z,17.15
2022-11-01T20:13:43.582Z,16.20
2022-11-01T20:16:11.492Z,10.43
2022-11-01T20:18:39.369Z,17.83
2022-11-01T20:21:07.267Z,14.18
2022-11-01T20:23:35.920Z,23.20
2022-11-01T20:26:04.849Z,12.13
2022-11-01T20:28:33.460Z,15.15
2022-11-01T20:31:04.575Z,9.60
2022-11-01T20:33:32.917Z,12.45
2022-11-01T20:36:00.990Z,11.70
2022-11-01T20:38:28.888Z,10.73
2022-11-01T20:40:56.983Z,14.27
2022-11-01T20:43:25.099Z,13.70
2022-11-01T20:45:53.148Z,6.10
2022-11-01T20:48:22.354Z,12.82
2022-11-01T20:50:50.290Z,13.25
2022-11-01T20:53:18.560Z,12.20
2022-11-01T20:55:46.603Z,10.82
2022-11-01T20:58:15.183Z,13.13
2022-11-01T21:00:43.104Z,10.63
2022-11-01T21:03:16.166Z,11.73
2022-11-01T21:05:47.076Z,4.82
2022-11-01T21:08:24.528Z,11.18
2022-11-01T21:10:55.697Z,11.32
2022-11-01T21:13:26.369Z,7.72
2022-11-01T21:15:56.033Z,10.55
2022-11-01T21:18:39.889Z,12.88
2022-11-01T21:24:16.424Z,10.82
2022-11-01T21:26:45.492Z,12.10
2022-11-01T21:29:20.688Z,14.52
2022-11-01T21:31:48.598Z,13.38
2022-11-01T21:34:25.835Z,17.63
2022-11-01T21:36:53.947Z,14.60
2022-11-01T21:39:26.882Z,13.48
2022-11-01T21:41:57.769Z,14.10
2022-11-01T21:44:29.366Z,19.75
2022-11-01T21:46:59.526Z,13.68
2022-11-01T21:49:30.315Z,12.63
2022-11-01T21:52:00.517Z,11.30
2022-11-01T21:54:31.359Z,9.70
2022-11-01T21:56:59.362Z,12.35
2022-11-01T21:59:28.696Z,17.25
2022-11-01T22:01:57.979Z,14.05
2022-11-01T22:04:28.682Z,16.55
2022-11-01T22:06:56.939Z,13.25
2022-11-01T22:09:25.339Z,18.52
2022-11-01T22:11:54.954Z,12.00
2022-11-01T22:14:22.824Z,20.05
2022-11-01T22:16:50.724Z,13.25
2022-11-01T22:19:18.881Z,14.88
2022-11-01T22:21:47.087Z,12.63
2022-11-01T22:24:15.162Z,14.32
2022-11-01T22:26:43.216Z,13.32
2022-11-01T22:29:12.425Z,17.77
2022-11-01T22:31:40.314Z,12.73
2022-11-01T22:34:08.133Z,16.50
2022-11-01T22:36:37.428Z,20.98
2022-11-01T22:39:15.334Z,12.35
2022-11-01T22:41:43.429Z,12.18
2022-11-01T22:44:14.759Z,18.90
2022-11-01T22:46:52.331Z,17.52
2022-11-01T22:49:27.365Z,13.40
2022-11-01T22:51:58.659Z,20.75
2022-11-01T22:54:39.914Z,10.07
2022-11-01T22:57:15.963Z,12.15
2022-11-01T22:59:47.387Z,8.93
2022-11-01T23:02:26.860Z,21.65
2022-11-01T23:05:20.563Z,14.43
2022-11-01T23:07:50.313Z,18.55
2022-11-01T23:10:24.980Z,11.05
2022-11-01T23:13:16.495Z,16.92
2022-11-01T23:15:45.999Z,13.45
2022-11-01T23:18:19.093Z,10.93
2022-11-01T23:20:54.028Z,12.70
2022-11-01T23:23:22.378Z,10.63
2022-11-01T23:25:50.723Z,6.72
2022-11-01T23:28:19.106Z,18.08
2022-11-01T23:30:49.511Z,17.05
2022-11-01T23:33:20.210Z,19.40
2022-11-01T23:35:52.028Z,11.23
2022-11-01T23:38:22.765Z,13.85
2022-11-01T23:40:52.848Z,10.93
2022-11-01T23:43:27.911Z,7.55
2022-11-01T23:45:57.418Z,9.63
2022-11-01T23:48:25.522Z,16.73
2022-11-01T23:50:54.199Z,10.85
2022-11-01T23:53:28.115Z,10.85
2022-11-01T23:55:56.109Z,15.80
